createdAt,value
2022-12-09T00:01:19.933Z,25.40
2022-12-09T00:03:47.330Z,24.52
2022-12-09T00:06:23.171Z,28.65
2022-12-09T00:08:53.692Z,28.25
2022-12-09T00:11:22.032Z,24.83
2022-12-09T00:13:52.763Z,30.17
2022-12-09T00:16:20.981Z,26.70
2022-12-09T00:18:48.902Z,27.88
2022-12-09T00:21:19.924Z,25.23
2022-12-09T00:23:48.278Z,28.63
2022-12-09T00:26:16.375Z,27.38
2022-12-09T00:28:44.399Z,28.70
2022-12-09T00:31:15.671Z,26.88
2022-12-09T00:33:43.451Z,29.48
2022-12-09T00:36:19.771Z,31.67
2022-12-09T00:38:47.900Z,30.40
2022-12-09T00:41:16.060Z,25.45
2022-12-09T00:43:44.247Z,28.73
2022-12-09T00:46:13.250Z,27.73
2022-12-09T00:48:41.642Z,28.20
2022-12-09T00:51:12.032Z,31.60
2022-12-09T00:53:39.232Z,30.42
2022-12-09T00:56:07.049Z,31.75
2022-12-09T00:58:34.486Z,33.83
2022-12-09T01:01:01.786Z,27.80
2022-12-09T01:03:29.635Z,30.10
2022-12-09T01:05:57.446Z,29.13
2022-12-09T01:08:24.708Z,31.02
2022-12-09T01:10:52.129Z,28.25
2022-12-09T01:13:19.368Z,30.02
2022-12-09T01:15:46.799Z,26.85
2022-12-09T01:18:14.198Z,27.60
2022-12-09T01:20:41.827Z,33.63
2022-12-09T01:23:09.200Z,32.05
2022-12-09T01:25:38.345Z,28.48
2022-12-09T01:28:05.742Z,27.98
2022-12-09T01:30:33.219Z,31.67
2022-12-09T01:33:00.539Z,26.90
2022-12-09T01:35:29.581Z,29.23
2022-12-09T01:37:56.830Z,29.20
2022-12-09T01:40:24.316Z,26.20
2022-12-09T01:42:51.576Z,28.95
2022-12-09T01:45:22.083Z,29.25
2022-12-09T01:48:02.307Z,27.00
2022-12-09T01:50:30.210Z,29.50
2022-12-09T01:52:58.116Z,28.63
2022-12-09T01:55:25.999Z,35.35
2022-12-09T01:57:53.602Z,35.78
2022-12-09T02:00:21.580Z,36.50
2022-12-09T02:02:49.845Z,31.30
2022-12-09T02:05:17.919Z,27.23
2022-12-09T02:07:45.167Z,26.92
2022-12-09T02:10:16.860Z,33.00
2022-12-09T02:13:05.814Z,31.80
2022-12-09T02:15:49.747Z,28.58
2022-12-09T02:18:22.412Z,27.73
2022-12-09T02:20:58.819Z,28.30
2022-12-09T02:23:49.842Z,24.70
2022-12-09T02:26:22.905Z,24.73
2022-12-09T02:28:55.842Z,32.30
2022-12-09T02:32:00.541Z,28.70
2022-12-09T02:34:32.345Z,25.60
2022-12-09T02:37:13.421Z,25.90
2022-12-09T02:39:53.188Z,27.98
2022-12-09T02:42:24.116Z,31.90
2022-12-09T02:44:52.642Z,31.80
2022-12-09T02:47:23.620Z,29.73
2022-12-09T02:49:59.997Z,30.35
2022-12-09T02:52:29.289Z,26.95
2022-12-09T02:55:00.891Z,32.80
2022-12-09T02:57:30.840Z,22.35
2022-12-09T02:59:58.378Z,22.23
2022-12-09T03:02:31.998Z,23.77
2022-12-09T03:05:10.228Z,22.83
2022-12-09T03:08:06.998Z,24.85
2022-12-09T03:10:44.648Z,26.35
2022-12-09T03:13:26.710Z,24.20
2022-12-09T03:16:05.999Z,27.33
2022-12-09T03:18:36.588Z,40.08
2022-12-09T03:21:06.000Z,29.35
2022-12-09T03:23:36.129Z,27.80
2022-12-09T03:26:06.104Z,29.48
2022-12-09T03:28:47.202Z,26.52
2022-12-09T03:31:19.259Z,33.10
2022-12-09T03:33:50.988Z,29.38
2022-12-09T03:36:20.898Z,29.27
2022-12-09T03:38:49.772Z,28.75
2022-12-09T03:41:32.729Z,28.30
2022-12-09T03:44:10.295Z,31.02
2022-12-09T03:46:37.809Z,31.55
2022-12-09T03:49:05.713Z,30.58
2022-12-09T03:51:49.760Z,31.20
2022-12-09T03:54:28.931Z,34.33
2022-12-09T03:56:58.647Z,30.40
2022-12-09T03:59:31.333Z,33.05
2022-12-09T04:01:59.065Z,30.10
2022-12-09T04:04:27.941Z,34.85
2022-12-09T04:06:55.329Z,33.42
2022-12-09T04:09:23.408Z,34.17
2022-12-09T04:11:50.900Z,36.95
2022-12-09T04:14:18.321Z,32.35
2022-12-09T04:16:46.313Z,42.08
2022-12-09T04:19:13.874Z,33.40
2022-12-09T04:21:41.124Z,36.97
2022-12-09T04:24:11.533Z,36.63
2022-12-09T04:26:38.842Z,36.80
2022-12-09T04:29:06.324Z,34.40
2022-12-09T04:31:33.745Z,31.98
2022-12-09T04:34:08.286Z,31.70
2022-12-09T04:36:36.565Z,32.00
2022-12-09T04:39:04.226Z,33.95
2022-12-09T04:41:31.377Z,39.40
2022-12-09T04:43:58.578Z,35.00
2022-12-09T04:46:26.102Z,36.63
2022-12-09T04:48:54.042Z,31.77
2022-12-09T04:51:21.924Z,38.83
2022-12-09T04:53:49.468Z,31.48
2022-12-09T04:56:21.418Z,30.48
2022-12-09T04:58:50.175Z,26.52
2022-12-09T05:01:26.367Z,27.60
2022-12-09T05:03:57.739Z,31.13
2022-12-09T05:06:25.218Z,28.83
2022-12-09T05:08:53.304Z,30.48
2022-12-09T05:11:21.617Z,28.40
2022-12-09T05:13:49.151Z,39.42
2022-12-09T05:16:19.145Z,32.05
2022-12-09T05:18:48.333Z,27.55
2022-12-09T05:21:21.552Z,25.60
2022-12-09T05:23:50.304Z,25.92
2022-12-09T05:26:22.023Z,29.00
2022-12-09T05:28:50.032Z,27.75
2022-12-09T05:31:20.380Z,29.73
2022-12-09T05:33:50.338Z,26.95
2022-12-09T05:36:20.981Z,28.25
2022-12-09T05:38:49.212Z,31.08
2022-12-09T05:41:18.481Z,30.77
2022-12-09T05:43:45.962Z,30.25
2022-12-09T05:46:14.735Z,28.50
2022-12-09T05:48:42.779Z,25.35
2022-12-09T05:51:21.781Z,26.13
2022-12-09T05:53:49.306Z,29.10
2022-12-09T05:56:20.469Z,29.15
2022-12-09T05:58:48.628Z,27.90
2022-12-09T06:01:16.760Z,27.42
2022-12-09T06:03:47.139Z,29.75
2022-12-09T06:06:16.861Z,29.27
2022-12-09T06:08:45.406Z,27.83
2022-12-09T06:11:17.983Z,30.27
2022-12-09T06:13:46.071Z,26.13
2022-12-09T06:16:15.482Z,34.40
2022-12-09T06:18:42.966Z,25.90
2022-12-09T06:21:13.383Z,24.00
2022-12-09T06:23:42.336Z,24.60
2022-12-09T06:26:22.421Z,28.45
2022-12-09T06:28:50.392Z,29.27
2022-12-09T06:31:18.138Z,31.15
2022-12-09T06:33:54.956Z,24.40
2022-12-09T06:36:24.241Z,25.80
2022-12-09T06:38:52.026Z,26.33
2022-12-09T06:41:19.368Z,24.83
2022-12-09T06:43:46.822Z,22.10
2022-12-09T06:46:17.861Z,22.33
2022-12-09T06:48:47.385Z,20.63
2022-12-09T06:51:16.371Z,22.40
2022-12-09T06:53:44.244Z,16.45
2022-12-09T06:56:13.511Z,16.67
2022-12-09T06:58:43.715Z,15.98
2022-12-09T07:01:14.783Z,18.60
2022-12-09T07:03:47.761Z,21.40
2022-12-09T07:06:38.526Z,19.85
2022-12-09T07:09:08.107Z,20.05
2022-12-09T07:11:35.924Z,20.10
2022-12-09T07:14:04.377Z,17.25
2022-12-09T07:16:32.135Z,18.73
2022-12-09T07:19:00.280Z,16.88
2022-12-09T07:21:29.072Z,18.67
2022-12-09T07:24:00.089Z,16.92
2022-12-09T07:26:28.009Z,17.85
2022-12-09T07:28:55.600Z,18.83
2022-12-09T07:31:28.587Z,19.17
2022-12-09T07:33:58.099Z,19.20
2022-12-09T07:36:28.754Z,19.45
2022-12-09T07:39:21.826Z,16.23
2022-12-09T07:41:54.453Z,23.17
2022-12-09T07:44:21.701Z,19.13
2022-12-09T07:46:49.401Z,17.42
2022-12-09T07:49:17.626Z,15.25
2022-12-09T07:51:45.355Z,16.88
2022-12-09T07:54:14.563Z,16.38
2022-12-09T07:56:42.268Z,18.88
2022-12-09T07:59:11.624Z,20.80
2022-12-09T08:01:39.441Z,17.00
2022-12-09T08:04:08.159Z,15.63
2022-12-09T08:06:36.884Z,16.83
2022-12-09T08:09:09.152Z,20.70
2022-12-09T08:11:37.564Z,15.30
2022-12-09T08:14:11.327Z,15.10
2022-12-09T08:16:42.068Z,13.57
2022-12-09T08:19:10.310Z,20.95
2022-12-09T08:21:38.968Z,15.48
2022-12-09T08:24:08.233Z,16.45
2022-12-09T08:26:40.208Z,16.77
2022-12-09T08:29:10.186Z,18.58
2022-12-09T08:31:41.681Z,20.17
2022-12-09T08:34:11.127Z,17.02
2022-12-09T08:36:40.827Z,17.70
2022-12-09T08:39:08.842Z,17.08
2022-12-09T08:41:38.473Z,20.80
2022-12-09T08:44:16.250Z,20.45
2022-12-09T08:46:46.604Z,19.10
2022-12-09T08:49:19.326Z,20.70
2022-12-09T08:51:51.771Z,18.70
2022-12-09T08:54:19.889Z,21.10
2022-12-09T08:56:53.801Z,17.75
2022-12-09T08:59:21.592Z,17.88
2022-12-09T09:01:50.357Z,18.38
2022-12-09T09:04:20.853Z,20.90
2022-12-09T09:06:50.847Z,17.38
2022-12-09T09:09:20.331Z,16.83
2022-12-09T09:11:48.856Z,23.55
2022-12-09T09:14:16.905Z,18.23
2022-12-09T09:16:45.794Z,17.92
2022-12-09T09:19:17.850Z,17.33
2022-12-09T09:21:46.596Z,21.85
2022-12-09T09:24:18.173Z,21.60
2022-12-09T09:26:46.931Z,19.85
2022-12-09T09:29:16.680Z,16.27
2022-12-09T09:31:44.855Z,16.48
2022-12-09T09:34:12.360Z,19.10
2022-12-09T09:36:41.391Z,20.38
2022-12-09T09:39:09.748Z,19.52
2022-12-09T09:41:54.509Z,16.33
2022-12-09T09:44:24.909Z,21.13
2022-12-09T09:46:54.557Z,20.52
2022-12-09T09:49:40.690Z,20.35
2022-12-09T09:52:16.930Z,25.25
2022-12-09T09:54:45.144Z,25.08
2022-12-09T09:57:12.723Z,23.10
2022-12-09T09:59:46.163Z,24.40
2022-12-09T10:02:19.636Z,26.75
2022-12-09T10:05:05.922Z,25.25
2022-12-09T10:07:41.997Z,29.05
2022-12-09T10:10:33.930Z,30.38
2022-12-09T10:13:28.402Z,27.55
2022-12-09T10:16:16.587Z,24.77
2022-12-09T10:19:02.501Z,29.48
2022-12-09T10:21:35.427Z,26.42
2022-12-09T10:24:27.758Z,24.92
2022-12-09T10:27:05.619Z,24.63
2022-12-09T10:29:47.202Z,29.23
2022-12-09T10:32:19.021Z,23.98
2022-12-09T10:34:48.718Z,25.60
2022-12-09T10:37:33.032Z,21.65
2022-12-09T10:40:10.611Z,25.95
2022-12-09T10:43:15.997Z,21.38
2022-12-09T10:48:48.971Z,27.98
2022-12-09T10:51:30.165Z,22.33
2022-12-09T10:54:05.830Z,20.73
2022-12-09T10:56:37.120Z,21.00
2022-12-09T10:59:13.709Z,22.02
2022-12-09T11:01:54.031Z,22.83
2022-12-09T11:04:28.128Z,21.67
2022-12-09T11:07:03.096Z,24.48
2022-12-09T11:09:36.708Z,26.00
2022-12-09T11:12:06.921Z,15.95
2022-12-09T11:14:51.102Z,26.08
2022-12-09T11:17:25.298Z,19.20
2022-12-09T11:20:11.581Z,22.65
2022-12-09T11:22:43.487Z,20.50
2022-12-09T11:25:27.471Z,15.63
2022-12-09T11:28:04.181Z,20.23
2022-12-09T11:31:19.857Z,21.38
2022-12-09T11:33:38.649Z,20.73
2022-12-09T11:36:18.975Z,20.83
2022-12-09T11:38:48.909Z,21.00
2022-12-09T11:41:46.054Z,17.95
2022-12-09T11:44:23.080Z,15.80
2022-12-09T11:47:08.344Z,20.63
2022-12-09T11:49:58.012Z,17.00
2022-12-09T11:52:29.534Z,18.92
2022-12-09T11:55:11.789Z,17.33
2022-12-09T11:57:47.505Z,21.25
2022-12-09T12:00:49.480Z,14.15
2022-12-09T12:03:22.766Z,14.38
2022-12-09T12:05:53.626Z,16.23
2022-12-09T12:08:31.687Z,15.73
2022-12-09T12:11:15.077Z,14.55
2022-12-09T12:13:46.987Z,11.55
2022-12-09T12:16:39.672Z,13.30
2022-12-09T12:19:13.127Z,15.60
2022-12-09T12:22:13.742Z,15.90
2022-12-09T12:24:58.861Z,15.73
2022-12-09T12:27:46.807Z,17.00
2022-12-09T12:30:23.676Z,18.42
2022-12-09T12:34:00.302Z,16.90
2022-12-09T12:36:20.455Z,14.30
2022-12-09T12:38:50.132Z,17.92
2022-12-09T12:41:20.114Z,16.98
2022-12-09T12:44:11.609Z,17.92
2022-12-09T12:47:03.156Z,16.60
2022-12-09T12:49:48.399Z,15.43
2022-12-09T12:52:55.702Z,15.65
2022-12-09T12:55:44.793Z,16.35
2022-12-09T12:58:34.441Z,17.95
2022-12-09T13:01:20.167Z,17.00
2022-12-09T13:03:59.264Z,13.98
2022-12-09T13:06:39.727Z,15.93
2022-12-09T13:09:23.152Z,14.82
2022-12-09T13:12:05.405Z,12.35
2022-12-09T13:14:55.773Z,15.60
2022-12-09T13:17:28.769Z,12.60
2022-12-09T13:20:00.913Z,12.65
2022-12-09T13:22:43.826Z,11.63
2022-12-09T13:25:38.870Z,17.33
2022-12-09T13:28:15.521Z,14.90
2022-12-09T13:30:55.768Z,15.13
2022-12-09T13:33:37.024Z,16.40
2022-12-09T13:36:13.789Z,13.20
2022-12-09T13:38:43.239Z,18.73
2022-12-09T13:41:29.062Z,14.90
2022-12-09T13:44:04.808Z,11.48
2022-12-09T13:46:33.648Z,9.07
2022-12-09T13:49:24.901Z,11.60
2022-12-09T13:51:54.259Z,10.93
2022-12-09T13:54:27.317Z,8.48
2022-12-09T13:57:15.864Z,9.10
2022-12-09T13:59:48.390Z,9.57
2022-12-09T14:02:21.255Z,10.45
2022-12-09T14:05:00.237Z,8.23
2022-12-09T14:07:30.472Z,8.07
2022-12-09T14:09:58.833Z,9.50
2022-12-09T14:12:25.815Z,7.00
2022-12-09T14:15:04.383Z,8.80
2022-12-09T14:17:31.329Z,6.82
2022-12-09T14:20:02.999Z,7.45
2022-12-09T14:22:39.099Z,6.97
2022-12-09T14:25:28.517Z,5.35
2022-12-09T14:28:11.005Z,5.22
2022-12-09T14:30:50.042Z,4.70
2022-12-09T14:33:32.901Z,6.30
2022-12-09T14:36:15.094Z,6.15
2022-12-09T14:39:33.160Z,7.28
2022-12-09T14:42:24.691Z,4.68
2022-12-09T14:45:13.192Z,8.25
2022-12-09T14:47:43.715Z,5.00
2022-12-09T14:50:17.331Z,4.10
2022-12-09T14:52:55.455Z,5.28
2022-12-09T14:55:25.862Z,5.50
2022-12-09T14:57:56.221Z,3.65
2022-12-09T15:00:41.003Z,4.82
2022-12-09T15:03:34.168Z,4.72
2022-12-09T15:06:06.199Z,5.85
2022-12-09T15:08:38.291Z,4.13
2022-12-09T15:11:08.538Z,4.22
2022-12-09T15:13:41.563Z,4.13
2022-12-09T15:16:12.778Z,4.07
2022-12-09T15:18:42.883Z,3.55
2022-12-09T15:21:11.577Z,3.90
2022-12-09T15:23:47.991Z,3.63
2022-12-09T15:26:36.052Z,4.43
2022-12-09T15:29:06.913Z,3.70
2022-12-09T15:31:35.377Z,4.57
2022-12-09T15:34:27.867Z,4.20
2022-12-09T15:37:09.378Z,5.68
2022-12-09T15:39:56.502Z,3.92
2022-12-09T15:42:31.441Z,4.63
2022-12-09T15:45:10.096Z,4.60
2022-12-09T15:48:17.453Z,6.72
2022-12-09T15:50:53.837Z,6.85
2022-12-09T15:53:38.002Z,5.25
2022-12-09T15:56:19.702Z,5.38
2022-12-09T15:58:51.792Z,4.82
2022-12-09T16:01:27.495Z,5.68
2022-12-09T16:03:59.860Z,5.30
2022-12-09T16:06:34.378Z,5.03
2022-12-09T16:09:03.041Z,4.88
2022-12-09T16:11:40.189Z,6.63
2022-12-09T16:14:09.315Z,7.53
2022-12-09T16:16:55.014Z,9.02
2022-12-09T16:19:31.662Z,7.75
2022-12-09T16:22:09.258Z,8.15
2022-12-09T16:25:14.345Z,9.70
2022-12-09T16:28:06.312Z,10.30
2022-12-09T16:30:47.378Z,13.30
2022-12-09T16:33:25.918Z,9.38
2022-12-09T16:36:28.972Z,10.85
2022-12-09T16:39:09.083Z,11.27
2022-12-09T16:41:53.107Z,10.32
2022-12-09T16:44:38.658Z,8.82
2022-12-09T16:47:23.156Z,10.40
2022-12-09T16:49:57.788Z,13.55
2022-12-09T16:52:31.962Z,9.85
2022-12-09T16:55:14.040Z,8.55
2022-12-09T16:57:48.614Z,13.50
2022-12-09T17:00:21.351Z,10.60
2022-12-09T17:02:57.159Z,7.40
2022-12-09T17:05:28.842Z,7.75
2022-12-09T17:07:57.211Z,8.73
2022-12-09T17:10:27.600Z,8.23
2022-12-09T17:12:55.626Z,6.85
2022-12-09T17:15:23.603Z,9.77
2022-12-09T17:17:51.537Z,8.35
2022-12-09T17:20:19.200Z,17.45
2022-12-09T17:22:46.420Z,23.30
2022-12-09T17:25:14.378Z,24.08
2022-12-09T17:27:49.029Z,11.50
2022-12-09T17:30:17.110Z,10.85
2022-12-09T17:32:57.990Z,11.65
2022-12-09T17:38:24.097Z,9.25
2022-12-09T17:40:59.978Z,31.10
2022-12-09T17:43:27.683Z,20.88
2022-12-09T17:45:55.755Z,12.13
2022-12-09T17:48:23.669Z,7.78
2022-12-09T17:50:51.568Z,10.15
2022-12-09T17:53:19.318Z,7.78
2022-12-09T17:55:46.673Z,9.73
2022-12-09T17:58:14.180Z,5.50
2022-12-09T18:00:41.618Z,6.30
2022-12-09T18:03:13.963Z,6.72
2022-12-09T18:05:48.091Z,9.43
2022-12-09T18:08:15.446Z,8.07
2022-12-09T18:10:44.780Z,6.63
2022-12-09T18:13:11.888Z,6.80
2022-12-09T18:15:39.419Z,5.85
2022-12-09T18:18:06.744Z,6.78
2022-12-09T18:20:34.097Z,8.57
2022-12-09T18:23:01.389Z,6.53
2022-12-09T18:25:28.917Z,6.35
2022-12-09T18:27:56.766Z,7.18
2022-12-09T18:30:23.856Z,7.05
2022-12-09T18:32:51.376Z,6.65
2022-12-09T18:35:18.748Z,5.50
2022-12-09T18:37:46.041Z,6.18
2022-12-09T18:40:13.808Z,7.40
2022-12-09T18:42:41.023Z,8.13
2022-12-09T18:45:10.909Z,6.05
2022-12-09T18:47:39.798Z,8.27
2022-12-09T18:50:07.904Z,6.80
2022-12-09T18:52:36.138Z,6.68
2022-12-09T18:55:04.520Z,6.47
2022-12-09T18:57:32.550Z,6.63
2022-12-09T19:00:00.077Z,9.63
2022-12-09T19:02:28.196Z,5.93
2022-12-09T19:04:55.991Z,7.15
2022-12-09T19:07:27.684Z,7.00
2022-12-09T19:09:58.455Z,5.47
2022-12-09T19:12:46.496Z,5.07
2022-12-09T19:15:15.665Z,6.40
2022-12-09T19:17:44.422Z,10.02
2022-12-09T19:20:12.451Z,12.73
2022-12-09T19:22:40.380Z,11.00
2022-12-09T19:25:08.404Z,17.95
2022-12-09T19:27:36.271Z,16.65
2022-12-09T19:30:06.396Z,9.07
2022-12-09T19:32:53.018Z,9.38
2022-12-09T19:35:21.803Z,8.20
2022-12-09T19:37:49.766Z,7.28
2022-12-09T19:40:17.889Z,6.90
2022-12-09T19:42:45.689Z,10.05
2022-12-09T19:45:14.348Z,12.82
2022-12-09T19:47:43.324Z,9.43
2022-12-09T19:50:11.343Z,9.02
2022-12-09T19:52:39.865Z,10.38
2022-12-09T19:55:09.145Z,9.00
2022-12-09T19:57:37.100Z,12.30
2022-12-09T20:00:07.141Z,16.67
2022-12-09T20:02:36.816Z,13.50
2022-12-09T20:05:05.848Z,11.88
2022-12-09T20:07:33.308Z,10.88
2022-12-09T20:10:01.314Z,10.30
2022-12-09T20:12:29.866Z,10.40
2022-12-09T20:14:57.267Z,11.55
2022-12-09T20:17:25.293Z,15.02
2022-12-09T20:19:54.188Z,12.25
2022-12-09T20:22:21.869Z,13.35
2022-12-09T20:24:50.427Z,13.10
2022-12-09T20:27:19.740Z,12.82
2022-12-09T20:29:49.354Z,11.68
2022-12-09T20:32:17.195Z,13.18
2022-12-09T20:34:45.227Z,12.70
2022-12-09T20:37:13.244Z,14.35
2022-12-09T20:39:40.821Z,13.02
2022-12-09T20:42:08.696Z,15.25
2022-12-09T20:44:36.847Z,16.20
2022-12-09T20:47:04.751Z,13.93
2022-12-09T20:49:32.472Z,14.45
2022-12-09T20:52:00.393Z,15.70
2022-12-09T20:54:28.273Z,14.50
2022-12-09T20:56:56.257Z,15.27
2022-12-09T20:59:26.023Z,17.50
2022-12-09T21:01:54.980Z,19.35
2022-12-09T21:04:23.935Z,20.55
2022-12-09T21:06:52.197Z,15.65
2022-12-09T21:09:22.934Z,15.48
2022-12-09T21:11:51.050Z,13.07
2022-12-09T21:14:19.660Z,18.45
2022-12-09T21:16:51.035Z,15.00
2022-12-09T21:19:25.049Z,13.93
2022-12-09T21:21:53.778Z,14.80
2022-12-09T21:24:23.437Z,13.10
2022-12-09T21:26:54.137Z,16.45
2022-12-09T21:29:23.738Z,12.77
2022-12-09T21:31:55.209Z,14.25
2022-12-09T21:34:25.054Z,15.57
2022-12-09T21:36:54.022Z,17.95
2022-12-09T21:39:21.706Z,18.90
2022-12-09T21:41:49.153Z,15.98
2022-12-09T21:44:19.298Z,13.50
2022-12-09T21:46:46.705Z,17.17
2022-12-09T21:49:13.940Z,12.32
2022-12-09T21:51:41.390Z,12.32
2022-12-09T21:54:08.751Z,12.27
2022-12-09T21:56:37.092Z,15.80
2022-12-09T21:59:06.516Z,10.40
2022-12-09T22:01:39.698Z,12.15
2022-12-09T22:04:11.246Z,12.02
2022-12-09T22:06:39.467Z,11.77
2022-12-09T22:09:08.544Z,10.80
2022-12-09T22:11:37.644Z,11.45
2022-12-09T22:14:05.947Z,11.55
2022-12-09T22:16:37.209Z,11.35
2022-12-09T22:19:08.416Z,11.95
2022-12-09T22:21:36.901Z,10.38
2022-12-09T22:24:06.068Z,10.88
2022-12-09T22:26:34.013Z,10.07
2022-12-09T22:29:02.854Z,9.98
2022-12-09T22:31:33.118Z,14.75
2022-12-09T22:34:03.947Z,9.30
2022-12-09T22:36:31.449Z,8.93
2022-12-09T22:38:58.937Z,9.88
2022-12-09T22:41:29.934Z,10.70
2022-12-09T22:43:57.517Z,8.45
2022-12-09T22:46:30.504Z,7.93
2022-12-09T22:49:00.838Z,8.20
2022-12-09T22:51:30.470Z,9.00
2022-12-09T22:53:58.803Z,9.68
2022-12-09T22:56:26.928Z,8.13
2022-12-09T22:58:55.082Z,10.13
2022-12-09T23:01:29.329Z,9.15
2022-12-09T23:03:57.681Z,8.40
2022-12-09T23:06:26.477Z,6.43
2022-12-09T23:08:53.921Z,6.47
2022-12-09T23:11:26.215Z,5.80
2022-12-09T23:13:53.378Z,6.40
2022-12-09T23:16:25.599Z,6.35
2022-12-09T23:18:55.090Z,6.22
2022-12-09T23:21:34.046Z,7.13
2022-12-09T23:24:03.392Z,7.70
2022-12-09T23:26:32.388Z,4.97
2022-12-09T23:29:01.937Z,5.10
2022-12-09T23:31:31.584Z,5.60
2022-12-09T23:33:59.745Z,6.07
2022-12-09T23:36:33.542Z,4.97
2022-12-09T23:39:01.921Z,5.20
2022-12-09T23:41:29.198Z,5.50
2022-12-09T23:43:57.163Z,4.43
2022-12-09T23:46:26.590Z,3.78
2022-12-09T23:48:54.384Z,4.72
2022-12-09T23:51:24.539Z,5.82
2022-12-09T23:53:54.896Z,4.80
2022-12-09T23:56:24.378Z,4.40
2022-12-09T23:59:07.346Z,5.50
